sensor_id;sensor_type;location;lat;lon;timestamp;pressure;altitude;pressure_sealevel;temperature;humidity
47530;BME280;33272;51.922;7.730;2023-04-08T00:01:58;143419.53;;;3.69;100.00
47530;BME280;33272;51.922;7.730;2023-04-08T00:04:25;143414.47;;;3.67;100.00
47530;BME280;33272;51.922;7.730;2023-04-08T00:06:52;143406.91;;;3.64;100.00
47530;BME280;33272;51.922;7.730;2023-04-08T00:09:20;143396.84;;;3.60;100.00
47530;BME280;33272;51.922;7.730;2023-04-08T00:11:47;143382.97;;;3.54;100.00
47530;BME280;33272;51.922;7.730;2023-04-08T00:14:14;143365.38;;;3.47;100.00
47530;BME280;33272;51.922;7.730;2023-04-08T00:16:41;143350.25;;;3.41;100.00
47530;BME280;33272;51.922;7.730;2023-04-08T00:19:08;143336.38;;;3.35;100.00
47530;BME280;33272;51.922;7.730;2023-04-08T00:21:35;143328.81;;;3.32;100.00
47530;BME280;33272;51.922;7.730;2023-04-08T00:24:02;143331.31;;;3.33;100.00
47530;BME280;33272;51.922;7.730;2023-04-08T00:26:31;143328.81;;;3.32;100.00
47530;BME280;33272;51.922;7.730;2023-04-08T00:28:58;143331.31;;;3.33;100.00
47530;BME280;33272;51.922;7.730;2023-04-08T00:31:25;143336.38;;;3.35;100.00
47530;BME280;33272;51.922;7.730;2023-04-08T00:33:52;143338.88;;;3.36;100.00
47530;BME280;33272;51.922;7.730;2023-04-08T00:36:19;143345.19;;;3.39;100.00
47530;BME280;33272;51.922;7.730;2023-04-08T00:38:47;143346.44;;;3.39;100.00
47530;BME280;33272;51.922;7.730;2023-04-08T00:41:14;143347.69;;;3.40;100.00
47530;BME280;33272;51.922;7.730;2023-04-08T00:43:43;143346.44;;;3.39;100.00
47530;BME280;33272;51.922;7.730;2023-04-08T00:46:10;143331.31;;;3.33;100.00
47530;BME280;33272;51.922;7.730;2023-04-08T00:48:37;143314.97;;;3.27;100.00
47530;BME280;33272;51.922;7.730;2023-04-08T00:51:04;143298.59;;;3.20;100.00
47530;BME280;33272;51.922;7.730;2023-04-08T00:53:31;143283.47;;;3.14;100.00
47530;BME280;33272;51.922;7.730;2023-04-08T00:55:58;143269.63;;;3.08;100.00
47530;BME280;33272;51.922;7.730;2023-04-08T00:58:27;143254.50;;;3.02;100.00
47530;BME280;33272;51.922;7.730;2023-04-08T01:01:01;143240.69;;;2.96;100.00
47530;BME280;33272;51.922;7.730;2023-04-08T01:03:41;143225.59;;;2.90;100.00
47530;BME280;33272;51.922;7.730;2023-04-08T01:06:24;143210.47;;;2.84;100.00
47530;BME280;33272;51.922;7.730;2023-04-08T01:08:56;143196.63;;;2.78;100.00
47530;BME280;33272;51.922;7.730;2023-04-08T01:11:25;143194.13;;;2.77;100.00
47530;BME280;33272;51.922;7.730;2023-04-08T01:13:54;143190.31;;;2.76;100.00
47530;BME280;33272;51.922;7.730;2023-04-08T01:16:25;143182.75;;;2.73;100.00
47530;BME280;33272;51.922;7.730;2023-04-08T01:18:53;143179.00;;;2.71;100.00
47530;BME280;33272;51.922;7.730;2023-04-08T01:21:21;143179.00;;;2.71;100.00
47530;BME280;33272;51.922;7.730;2023-04-08T01:23:58;143175.22;;;2.70;100.00
47530;BME280;33272;51.922;7.730;2023-04-08T01:26:28;143175.22;;;2.70;100.00
47530;BME280;33272;51.922;7.730;2023-04-08T01:28:58;143165.16;;;2.66;100.00
47530;BME280;33272;51.922;7.730;2023-04-08T01:31:26;143156.34;;;2.62;100.00
47530;BME280;33272;51.922;7.730;2023-04-08T01:33:54;143145.00;;;2.58;100.00
47530;BME280;33272;51.922;7.730;2023-04-08T01:36:24;143140.00;;;2.55;100.00
47530;BME280;33272;51.922;7.730;2023-04-08T01:38:52;143124.88;;;2.49;100.00
47530;BME280;33272;51.922;7.730;2023-04-08T01:41:20;143126.13;;;2.50;100.00
47530;BME280;33272;51.922;7.730;2023-04-08T01:43:49;143119.84;;;2.47;100.00
47530;BME280;33272;51.922;7.730;2023-04-08T01:46:16;143121.09;;;2.48;100.00
47530;BME280;33272;51.922;7.730;2023-04-08T01:48:45;143121.09;;;2.48;100.00
47530;BME280;33272;51.922;7.730;2023-04-08T01:51:14;143117.34;;;2.46;100.00
47530;BME280;33272;51.922;7.730;2023-04-08T01:53:42;143109.78;;;2.43;100.00
47530;BME280;33272;51.922;7.730;2023-04-08T01:56:12;143097.19;;;2.38;100.00
47530;BME280;33272;51.922;7.730;2023-04-08T01:58:43;143082.06;;;2.32;100.00
47530;BME280;33272;51.922;7.730;2023-04-08T02:01:17;143072.03;;;2.28;100.00
47530;BME280;33272;51.922;7.730;2023-04-08T02:03:47;143059.44;;;2.23;100.00
47530;BME280;33272;51.922;7.730;2023-04-08T02:06:16;143054.44;;;2.21;100.00
47530;BME280;33272;51.922;7.730;2023-04-08T02:08:43;143039.31;;;2.15;100.00
47530;BME280;33272;51.922;7.730;2023-04-08T02:11:10;143024.22;;;2.08;100.00
47530;BME280;33272;51.922;7.730;2023-04-08T02:13:37;143011.63;;;2.03;100.00
47530;BME280;33272;51.922;7.730;2023-04-08T02:16:15;143000.34;;;1.99;100.00
47530;BME280;33272;51.922;7.730;2023-04-08T02:18:54;142994.03;;;1.96;100.00
47530;BME280;33272;51.922;7.730;2023-04-08T02:21:28;142990.22;;;1.95;100.00
47530;BME280;33272;51.922;7.730;2023-04-08T02:23:59;142982.69;;;1.92;100.00
47530;BME280;33272;51.922;7.730;2023-04-08T02:26:33;142978.94;;;1.90;100.00
47530;BME280;33272;51.922;7.730;2023-04-08T02:29:03;142976.38;;;1.89;100.00
47530;BME280;33272;51.922;7.730;2023-04-08T02:31:33;142977.69;;;1.90;100.00
47530;BME280;33272;51.922;7.730;2023-04-08T02:34:00;142975.13;;;1.89;100.00
47530;BME280;33272;51.922;7.730;2023-04-08T02:36:28;142976.38;;;1.89;100.00
47530;BME280;33272;51.922;7.730;2023-04-08T02:38:57;142977.69;;;1.90;100.00
47530;BME280;33272;51.922;7.730;2023-04-08T02:41:27;142978.94;;;1.90;100.00
47530;BME280;33272;51.922;7.730;2023-04-08T02:43:54;142976.38;;;1.89;100.00
47530;BME280;33272;51.922;7.730;2023-04-08T02:46:21;142983.94;;;1.92;100.00
47530;BME280;33272;51.922;7.730;2023-04-08T02:48:50;142997.78;;;1.98;100.00
47530;BME280;33272;51.922;7.730;2023-04-08T02:51:17;143007.88;;;2.02;100.00
47530;BME280;33272;51.922;7.730;2023-04-08T02:53:44;143019.19;;;2.06;100.00
47530;BME280;33272;51.922;7.730;2023-04-08T02:56:11;143027.97;;;2.10;100.00
47530;BME280;33272;51.922;7.730;2023-04-08T02:58:38;143039.31;;;2.15;100.00
47530;BME280;33272;51.922;7.730;2023-04-08T03:01:07;143056.94;;;2.22;100.00
47530;BME280;33272;51.922;7.730;2023-04-08T03:03:34;143072.03;;;2.28;100.00
47530;BME280;33272;51.922;7.730;2023-04-08T03:06:04;143090.88;;;2.36;100.00
47530;BME280;33272;51.922;7.730;2023-04-08T03:08:31;143104.72;;;2.41;100.00
47530;BME280;33272;51.922;7.730;2023-04-08T03:10:58;143124.88;;;2.49;100.00
47530;BME280;33272;51.922;7.730;2023-04-08T03:13:25;143143.75;;;2.57;100.00
47530;BME280;33272;51.922;7.730;2023-04-08T03:15:54;143167.66;;;2.67;100.00
47530;BME280;33272;51.922;7.730;2023-04-08T03:18:21;143185.25;;;2.74;100.00
47530;BME280;33272;51.922;7.730;2023-04-08T03:20:48;143204.16;;;2.82;100.00
47530;BME280;33272;51.922;7.730;2023-04-08T03:23:16;143224.28;;;2.90;100.00
47530;BME280;33272;51.922;7.730;2023-04-08T03:25:43;143238.16;;;2.95;100.00
47530;BME280;33272;51.922;7.730;2023-04-08T03:28:11;143254.50;;;3.02;100.00
47530;BME280;33272;51.922;7.730;2023-04-08T03:30:37;143273.41;;;3.10;100.00
47530;BME280;33272;51.922;7.730;2023-04-08T03:33:04;143288.53;;;3.16;100.00
47530;BME280;33272;51.922;7.730;2023-04-08T03:35:32;143311.19;;;3.25;100.00
47530;BME280;33272;51.922;7.730;2023-04-08T03:38:00;143328.81;;;3.32;100.00
47530;BME280;33272;51.922;7.730;2023-04-08T03:40:28;143347.69;;;3.40;100.00
47530;BME280;33272;51.922;7.730;2023-04-08T03:42:55;143362.81;;;3.46;100.00
47530;BME280;33272;51.922;7.730;2023-04-08T03:45:22;143376.69;;;3.52;100.00
47530;BME280;33272;51.922;7.730;2023-04-08T03:47:49;143388.00;;;3.56;100.00
47530;BME280;33272;51.922;7.730;2023-04-08T03:50:16;143395.56;;;3.59;100.00
47530;BME280;33272;51.922;7.730;2023-04-08T03:52:43;143408.16;;;3.64;100.00
47530;BME280;33272;51.922;7.730;2023-04-08T03:55:10;143425.78;;;3.71;100.00
47530;BME280;33272;51.922;7.730;2023-04-08T03:57:38;143442.16;;;3.78;100.00
47530;BME280;33272;51.922;7.730;2023-04-08T04:00:08;143458.59;;;3.85;100.00
47530;BME280;33272;51.922;7.730;2023-04-08T04:02:35;143472.41;;;3.90;100.00
47530;BME280;33272;51.922;7.730;2023-04-08T04:05:02;143490.09;;;3.98;100.00
47530;BME280;33272;51.922;7.730;2023-04-08T04:07:29;143500.16;;;4.02;100.00
47530;BME280;33272;51.922;7.730;2023-04-08T04:09:56;143520.34;;;4.10;100.00
47530;BME280;33272;51.922;7.730;2023-04-08T04:12:23;143531.66;;;4.14;100.00
47530;BME280;33272;51.922;7.730;2023-04-08T04:14:52;143542.97;;;4.19;100.00
47530;BME280;33272;51.922;7.730;2023-04-08T04:17:19;143556.84;;;4.25;100.00
47530;BME280;33272;51.922;7.730;2023-04-08T04:19:46;143568.22;;;4.29;100.00
47530;BME280;33272;51.922;7.730;2023-04-08T04:22:13;143575.78;;;4.32;100.00
47530;BME280;33272;51.922;7.730;2023-04-08T04:24:40;143579.53;;;4.34;100.00
47530;BME280;33272;51.922;7.730;2023-04-08T04:27:07;143584.59;;;4.36;100.00
47530;BME280;33272;51.922;7.730;2023-04-08T04:29:34;143575.78;;;4.32;100.00
47530;BME280;33272;51.922;7.730;2023-04-08T04:32:02;143573.22;;;4.31;100.00
47530;BME280;33272;51.922;7.730;2023-04-08T04:34:29;143569.47;;;4.30;100.00
47530;BME280;33272;51.922;7.730;2023-04-08T04:36:56;143580.81;;;4.34;100.00
47530;BME280;33272;51.922;7.730;2023-04-08T04:39:23;143593.44;;;4.39;100.00
47530;BME280;33272;51.922;7.730;2023-04-08T04:41:50;143606.03;;;4.45;100.00
47530;BME280;33272;51.922;7.730;2023-04-08T04:44:17;143616.13;;;4.49;100.00
47530;BME280;33272;51.922;7.730;2023-04-08T04:46:44;143626.19;;;4.53;100.00
47530;BME280;33272;51.922;7.730;2023-04-08T04:49:12;143638.81;;;4.58;100.00
47530;BME280;33272;51.922;7.730;2023-04-08T04:51:39;143646.38;;;4.61;100.00
47530;BME280;33272;51.922;7.730;2023-04-08T04:54:07;143651.41;;;4.63;100.00
47530;BME280;33272;51.922;7.730;2023-04-08T04:56:33;143664.03;;;4.68;100.00
47530;BME280;33272;51.922;7.730;2023-04-08T04:59:00;143679.16;;;4.74;100.00
47530;BME280;33272;51.922;7.730;2023-04-08T05:01:27;143687.97;;;4.78;100.00
47530;BME280;33272;51.922;7.730;2023-04-08T05:03:55;143696.81;;;4.81;100.00
47530;BME280;33272;51.922;7.730;2023-04-08T05:06:23;143704.38;;;4.84;100.00
47530;BME280;33272;51.922;7.730;2023-04-08T05:08:51;143714.44;;;4.88;100.00
47530;BME280;33272;51.922;7.730;2023-04-08T05:11:18;143722.00;;;4.92;100.00
47530;BME280;33272;51.922;7.730;2023-04-08T05:13:46;143733.38;;;4.96;100.00
47530;BME280;33272;51.922;7.730;2023-04-08T05:16:13;143744.72;;;5.01;100.00
47530;BME280;33272;51.922;7.730;2023-04-08T05:18:41;143780.06;;;5.15;100.00
47530;BME280;33272;51.922;7.730;2023-04-08T05:21:08;143828.00;;;5.34;100.00
47530;BME280;33272;51.922;7.730;2023-04-08T05:23:36;143881.00;;;5.56;100.00
47530;BME280;33272;51.922;7.730;2023-04-08T05:26:06;143920.13;;;5.72;100.00
47530;BME280;33272;51.922;7.730;2023-04-08T05:28:33;143955.44;;;5.86;100.00
47530;BME280;33272;51.922;7.730;2023-04-08T05:31:00;143979.50;;;5.96;100.00
47530;BME280;33272;51.922;7.730;2023-04-08T05:33:27;143989.59;;;6.00;100.00
47530;BME280;33272;51.922;7.730;2023-04-08T05:35:54;143999.69;;;6.04;100.00
47530;BME280;33272;51.922;7.730;2023-04-08T05:38:21;144004.75;;;6.06;100.00
47530;BME280;33272;51.922;7.730;2023-04-08T05:40:49;144012.34;;;6.09;100.00
47530;BME280;33272;51.922;7.730;2023-04-08T05:43:17;144008.53;;;6.08;100.00
47530;BME280;33272;51.922;7.730;2023-04-08T05:45:44;144012.34;;;6.09;100.00
47530;BME280;33272;51.922;7.730;2023-04-08T05:48:11;144022.41;;;6.13;100.00
47530;BME280;33272;51.922;7.730;2023-04-08T05:50:38;144040.06;;;6.20;100.00
47530;BME280;33272;51.922;7.730;2023-04-08T05:53:05;144061.56;;;6.29;100.00
47530;BME280;33272;51.922;7.730;2023-04-08T05:55:32;144067.88;;;6.32;100.00
47530;BME280;33272;51.922;7.730;2023-04-08T05:58:01;144089.34;;;6.40;100.00
47530;BME280;33272;51.922;7.730;2023-04-08T06:00:28;144110.78;;;6.49;100.00
47530;BME280;33272;51.922;7.730;2023-04-08T06:02:55;144137.34;;;6.60;100.00
47530;BME280;33272;51.922;7.730;2023-04-08T06:05:22;144166.41;;;6.71;100.00
47530;BME280;33272;51.922;7.730;2023-04-08T06:07:49;144192.91;;;6.82;100.00
47530;BME280;33272;51.922;7.730;2023-04-08T06:10:16;144219.44;;;6.93;100.00
47530;BME280;33272;51.922;7.730;2023-04-08T06:12:43;144234.59;;;6.99;100.00
47530;BME280;33272;51.922;7.730;2023-04-08T06:15:11;144252.31;;;7.06;100.00
47530;BME280;33272;51.922;7.730;2023-04-08T06:17:38;144261.16;;;7.10;100.00
47530;BME280;33272;51.922;7.730;2023-04-08T06:20:06;144276.34;;;7.16;100.00
47530;BME280;33272;51.922;7.730;2023-04-08T06:22:34;144287.69;;;7.20;100.00
47530;BME280;33272;51.922;7.730;2023-04-08T06:25:01;144290.19;;;7.22;100.00
47530;BME280;33272;51.922;7.730;2023-04-08T06:27:28;144285.16;;;7.19;100.00
47530;BME280;33272;51.922;7.730;2023-04-08T06:29:55;144290.19;;;7.22;100.00
47530;BME280;33272;51.922;7.730;2023-04-08T06:32:24;144307.91;;;7.29;100.00
47530;BME280;33272;51.922;7.730;2023-04-08T06:34:51;144323.09;;;7.35;100.00
47530;BME280;33272;51.922;7.730;2023-04-08T06:37:18;144339.50;;;7.41;100.00
47530;BME280;33272;51.922;7.730;2023-04-08T06:39:45;144354.69;;;7.48;100.00
47530;BME280;33272;51.922;7.730;2023-04-08T06:42:12;144368.56;;;7.53;100.00
47530;BME280;33272;51.922;7.730;2023-04-08T06:44:39;144391.31;;;7.62;100.00
47530;BME280;33272;51.922;7.730;2023-04-08T06:47:05;144425.47;;;7.76;100.00
47530;BME280;33272;51.922;7.730;2023-04-08T06:49:34;144463.41;;;7.92;100.00
47530;BME280;33272;51.922;7.730;2023-04-08T06:52:02;144489.97;;;8.02;100.00
47530;BME280;33272;51.922;7.730;2023-04-08T06:54:28;144510.22;;;8.10;100.00
47530;BME280;33272;51.922;7.730;2023-04-08T06:56:55;144527.91;;;8.18;100.00
47530;BME280;33272;51.922;7.730;2023-04-08T06:59:22;144527.91;;;8.18;100.00
47530;BME280;33272;51.922;7.730;2023-04-08T07:01:49;144531.69;;;8.19;100.00
47530;BME280;33272;51.922;7.730;2023-04-08T07:04:16;144527.91;;;8.18;100.00
47530;BME280;33272;51.922;7.730;2023-04-08T07:06:44;144544.34;;;8.24;100.00
47530;BME280;33272;51.922;7.730;2023-04-08T07:09:11;144568.38;;;8.34;100.00
47530;BME280;33272;51.922;7.730;2023-04-08T07:11:38;144569.63;;;8.34;100.00
47530;BME280;33272;51.922;7.730;2023-04-08T07:14:05;144564.59;;;8.32;100.00
47530;BME280;33272;51.922;7.730;2023-04-08T07:16:32;144550.69;;;8.27;100.00
47530;BME280;33272;51.922;7.730;2023-04-08T07:18:59;144545.59;;;8.25;100.00
47530;BME280;33272;51.922;7.730;2023-04-08T07:21:26;144534.25;;;8.20;100.00
47530;BME280;33272;51.922;7.730;2023-04-08T07:23:56;144519.06;;;8.14;100.00
47530;BME280;33272;51.922;7.730;2023-04-08T07:26:23;144505.13;;;8.08;100.00
47530;BME280;33272;51.922;7.730;2023-04-08T07:28:50;144500.06;;;8.06;100.00
47530;BME280;33272;51.922;7.730;2023-04-08T07:31:18;144503.88;;;8.08;100.00
47530;BME280;33272;51.922;7.730;2023-04-08T07:33:45;144522.84;;;8.16;100.00
47530;BME280;33272;51.922;7.730;2023-04-08T07:36:13;144548.13;;;8.26;100.00
47530;BME280;33272;51.922;7.730;2023-04-08T07:38:42;144570.88;;;8.35;100.00
47530;BME280;33272;51.922;7.730;2023-04-08T07:41:11;144570.88;;;8.35;100.00
47530;BME280;33272;51.922;7.730;2023-04-08T07:43:38;144569.63;;;8.34;100.00
47530;BME280;33272;51.922;7.730;2023-04-08T07:46:05;144574.72;;;8.36;100.00
47530;BME280;33272;51.922;7.730;2023-04-08T07:48:33;144588.69;;;8.42;100.00
47530;BME280;33272;51.922;7.730;2023-04-08T07:51:03;144610.16;;;8.51;100.00
47530;BME280;33272;51.922;7.730;2023-04-08T07:53:31;144626.66;;;8.57;100.00
47530;BME280;33272;51.922;7.730;2023-04-08T07:55:58;144660.78;;;8.71;100.00
47530;BME280;33272;51.922;7.730;2023-04-08T07:58:26;144701.28;;;8.88;100.00
47530;BME280;33272;51.922;7.730;2023-04-08T08:00:53;144745.59;;;9.05;100.00
47530;BME280;33272;51.922;7.730;2023-04-08T08:03:22;144794.94;;;9.25;100.00
47530;BME280;33272;51.922;7.730;2023-04-08T08:05:48;144824.09;;;9.37;100.00
47530;BME280;33272;51.922;7.730;2023-04-08T08:08:15;144844.31;;;9.45;100.00
47530;BME280;33272;51.922;7.730;2023-04-08T08:10:42;144862.06;;;9.52;100.00
47530;BME280;33272;51.922;7.730;2023-04-08T08:13:09;144882.31;;;9.61;100.00
47530;BME280;33272;51.922;7.730;2023-04-08T08:15:38;144879.78;;;9.60;100.00
47530;BME280;33272;51.922;7.730;2023-04-08T08:18:05;144869.69;;;9.56;100.00
47530;BME280;33272;51.922;7.730;2023-04-08T08:20:34;144849.41;;;9.47;100.00
47530;BME280;33272;51.922;7.730;2023-04-08T08:23:01;144838.03;;;9.43;100.00
47530;BME280;33272;51.922;7.730;2023-04-08T08:25:28;144848.13;;;9.47;100.00
47530;BME280;33272;51.922;7.730;2023-04-08T08:27:55;144844.31;;;9.45;100.00
47530;BME280;33272;51.922;7.730;2023-04-08T08:30:22;144844.31;;;9.45;100.00
47530;BME280;33272;51.922;7.730;2023-04-08T08:32:53;144831.69;;;9.40;100.00
47530;BME280;33272;51.922;7.730;2023-04-08T08:35:21;144860.81;;;9.52;100.00
47530;BME280;33272;51.922;7.730;2023-04-08T08:37:48;144889.91;;;9.64;100.00
47530;BME280;33272;51.922;7.730;2023-04-08T08:40:15;144933.00;;;9.81;100.00
47530;BME280;33272;51.922;7.730;2023-04-08T08:42:49;144988.72;;;10.04;100.00
47530;BME280;33272;51.922;7.730;2023-04-08T08:45:18;145028.00;;;10.19;100.00
47530;BME280;33272;51.922;7.730;2023-04-08T08:47:45;145031.78;;;10.21;100.00
47530;BME280;33272;51.922;7.730;2023-04-08T08:50:13;145025.47;;;10.18;100.00
47530;BME280;33272;51.922;7.730;2023-04-08T08:52:48;145019.13;;;10.16;100.00
47530;BME280;33272;51.922;7.730;2023-04-08T08:55:17;145025.47;;;10.18;100.00
47530;BME280;33272;51.922;7.730;2023-04-08T08:57:45;145011.53;;;10.13;100.00
47530;BME280;33272;51.922;7.730;2023-04-08T09:00:14;145010.28;;;10.12;100.00
47530;BME280;33272;51.922;7.730;2023-04-08T09:02:41;144996.31;;;10.07;100.00
47530;BME280;33272;51.922;7.730;2023-04-08T09:05:08;144963.41;;;9.93;100.00
47530;BME280;33272;51.922;7.730;2023-04-08T09:07:38;144941.84;;;9.85;100.00
47530;BME280;33272;51.922;7.730;2023-04-08T09:10:07;144927.91;;;9.79;100.00
47530;BME280;33272;51.922;7.730;2023-04-08T09:12:35;144944.38;;;9.86;100.00
47530;BME280;33272;51.922;7.730;2023-04-08T09:15:18;145007.72;;;10.11;100.00
47530;BME280;33272;51.922;7.730;2023-04-08T09:17:46;145063.50;;;10.34;100.00
47530;BME280;33272;51.922;7.730;2023-04-08T09:20:13;145119.31;;;10.56;100.00
47530;BME280;33272;51.922;7.730;2023-04-08T09:22:58;145176.31;;;10.79;100.00
47530;BME280;33272;51.922;7.730;2023-04-08T09:25:27;145214.38;;;10.95;100.00
47530;BME280;33272;51.922;7.730;2023-04-08T09:27:54;145265.06;;;11.15;100.00
47530;BME280;33272;51.922;7.730;2023-04-08T09:30:24;145282.81;;;11.22;100.00
47530;BME280;33272;51.922;7.730;2023-04-08T09:32:54;145279.03;;;11.21;100.00
47530;BME280;33272;51.922;7.730;2023-04-08T09:35:22;145246.06;;;11.07;100.00
47530;BME280;33272;51.922;7.730;2023-04-08T09:37:50;145234.63;;;11.03;100.00
47530;BME280;33272;51.922;7.730;2023-04-08T09:40:18;145239.72;;;11.05;100.00
47530;BME280;33272;51.922;7.730;2023-04-08T09:42:47;145240.97;;;11.05;100.00
47530;BME280;33272;51.922;7.730;2023-04-08T09:45:17;145258.72;;;11.12;100.00
47530;BME280;33272;51.922;7.730;2023-04-08T09:47:56;145272.66;;;11.18;100.00
47530;BME280;33272;51.922;7.730;2023-04-08T09:50:26;145261.28;;;11.13;100.00
47530;BME280;33272;51.922;7.730;2023-04-08T09:53:01;145263.78;;;11.14;100.00
47530;BME280;33272;51.922;7.730;2023-04-08T09:55:33;145265.06;;;11.15;100.00
47530;BME280;33272;51.922;7.730;2023-04-08T09:58:06;145265.06;;;11.15;100.00
47530;BME280;33272;51.922;7.730;2023-04-08T10:00:48;145266.31;;;11.16;100.00
47530;BME280;33272;51.922;7.730;2023-04-08T10:03:26;145284.09;;;11.23;100.00
47530;BME280;33272;51.922;7.730;2023-04-08T10:05:54;145311.97;;;11.34;100.00
47530;BME280;33272;51.922;7.730;2023-04-08T10:08:22;145339.91;;;11.45;100.00
47530;BME280;33272;51.922;7.730;2023-04-08T10:10:53;145374.13;;;11.59;100.00
47530;BME280;33272;51.922;7.730;2023-04-08T10:13:21;145412.19;;;11.74;100.00
47530;BME280;33272;51.922;7.730;2023-04-08T10:15:49;145441.44;;;11.86;100.00
47530;BME280;33272;51.922;7.730;2023-04-08T10:18:31;145465.53;;;11.96;100.00
47530;BME280;33272;51.922;7.730;2023-04-08T10:20:59;145485.81;;;12.04;100.00
47530;BME280;33272;51.922;7.730;2023-04-08T10:23:52;145517.53;;;12.17;100.00
47530;BME280;33272;51.922;7.730;2023-04-08T10:26:32;145569.59;;;12.38;100.00
47530;BME280;33272;51.922;7.730;2023-04-08T10:29:31;145574.69;;;12.40;100.00
47530;BME280;33272;51.922;7.730;2023-04-08T10:31:59;145596.28;;;12.48;100.00
47530;BME280;33272;51.922;7.730;2023-04-08T10:34:27;145601.31;;;12.50;100.00
47530;BME280;33272;51.922;7.730;2023-04-08T10:36:56;145602.59;;;12.51;100.00
47530;BME280;33272;51.922;7.730;2023-04-08T10:39:26;145615.31;;;12.56;100.00
47530;BME280;33272;51.922;7.730;2023-04-08T10:41:55;145662.28;;;12.75;100.00
47530;BME280;33272;51.922;7.730;2023-04-08T10:44:24;145708.00;;;12.93;100.00
47530;BME280;33272;51.922;7.730;2023-04-08T10:46:52;145757.50;;;13.13;100.00
47530;BME280;33272;51.922;7.730;2023-04-08T10:49:20;145816.03;;;13.37;100.00
47530;BME280;33272;51.922;7.730;2023-04-08T10:51:47;145850.31;;;13.51;100.00
47530;BME280;33272;51.922;7.730;2023-04-08T10:54:16;145859.19;;;13.54;100.00
47530;BME280;33272;51.922;7.730;2023-04-08T10:56:46;145821.06;;;13.39;100.00
47530;BME280;33272;51.922;7.730;2023-04-08T10:59:15;145755.00;;;13.12;100.00
47530;BME280;33272;51.922;7.730;2023-04-08T11:01:44;145748.63;;;13.10;100.00
47530;BME280;33272;51.922;7.730;2023-04-08T11:04:13;145767.66;;;13.17;100.00
47530;BME280;33272;51.922;7.730;2023-04-08T11:06:42;145808.41;;;13.34;100.00
47530;BME280;33272;51.922;7.730;2023-04-08T11:09:09;145829.94;;;13.42;100.00
47530;BME280;33272;51.922;7.730;2023-04-08T11:11:37;145851.56;;;13.51;100.00
47530;BME280;33272;51.922;7.730;2023-04-08T11:14:04;145884.59;;;13.64;100.00
47530;BME280;33272;51.922;7.730;2023-04-08T11:16:33;145897.31;;;13.70;100.00
47530;BME280;33272;51.922;7.730;2023-04-08T11:19:02;145887.16;;;13.65;100.00
47530;BME280;33272;51.922;7.730;2023-04-08T11:21:31;145874.44;;;13.60;100.00
47530;BME280;33272;51.922;7.730;2023-04-08T11:23:58;145902.41;;;13.72;100.00
47530;BME280;33272;51.922;7.730;2023-04-08T11:26:25;145945.59;;;13.89;100.00
47530;BME280;33272;51.922;7.730;2023-04-08T11:28:54;145946.84;;;13.89;100.00
47530;BME280;33272;51.922;7.730;2023-04-08T11:31:22;145955.75;;;13.93;100.00
47530;BME280;33272;51.922;7.730;2023-04-08T11:33:53;145985.00;;;14.05;100.00
47530;BME280;33272;51.922;7.730;2023-04-08T11:36:20;146011.72;;;14.16;100.00
47530;BME280;33272;51.922;7.730;2023-04-08T11:38:47;146033.28;;;14.24;100.00
47530;BME280;33272;51.922;7.730;2023-04-08T11:41:15;146066.38;;;14.37;100.00
47530;BME280;33272;51.922;7.730;2023-04-08T11:43:53;146046.03;;;14.29;100.00
47530;BME280;33272;51.922;7.730;2023-04-08T11:46:21;146019.34;;;14.19;100.00
47530;BME280;33272;51.922;7.730;2023-04-08T11:49:01;145992.63;;;14.08;100.00
47530;BME280;33272;51.922;7.730;2023-04-08T11:51:29;145959.59;;;13.95;100.00
47530;BME280;33272;51.922;7.730;2023-04-08T11:53:56;145937.97;;;13.86;100.00
47530;BME280;33272;51.922;7.730;2023-04-08T11:56:24;145958.31;;;13.94;100.00
47530;BME280;33272;51.922;7.730;2023-04-08T11:58:51;145971.00;;;13.99;100.00
47530;BME280;33272;51.922;7.730;2023-04-08T12:01:19;145993.88;;;14.08;100.00
47530;BME280;33272;51.922;7.730;2023-04-08T12:03:57;146011.72;;;14.16;100.00
47530;BME280;33272;51.922;7.730;2023-04-08T12:06:25;146035.88;;;14.25;100.00
47530;BME280;33272;51.922;7.730;2023-04-08T12:08:54;145983.72;;;14.04;100.00
47530;BME280;33272;51.922;7.730;2023-04-08T12:11:21;145936.72;;;13.85;100.00
47530;BME280;33272;51.922;7.730;2023-04-08T12:13:48;145910.03;;;13.75;100.00
47530;BME280;33272;51.922;7.730;2023-04-08T12:16:17;145915.09;;;13.77;100.00
47530;BME280;33272;51.922;7.730;2023-04-08T12:18:44;145941.81;;;13.87;100.00
47530;BME280;33272;51.922;7.730;2023-04-08T12:21:11;145971.00;;;13.99;100.00
47530;BME280;33272;51.922;7.730;2023-04-08T12:23:39;145978.63;;;14.02;100.00
47530;BME280;33272;51.922;7.730;2023-04-08T12:26:07;145960.84;;;13.95;100.00
47530;BME280;33272;51.922;7.730;2023-04-08T12:28:34;145906.19;;;13.73;100.00
47530;BME280;33272;51.922;7.730;2023-04-08T12:31:01;145884.59;;;13.64;100.00
47530;BME280;33272;51.922;7.730;2023-04-08T12:33:28;145890.94;;;13.67;100.00
47530;BME280;33272;51.922;7.730;2023-04-08T12:35:56;145907.47;;;13.74;100.00
47530;BME280;33272;51.922;7.730;2023-04-08T12:38:24;145911.31;;;13.75;100.00
47530;BME280;33272;51.922;7.730;2023-04-08T12:40:53;145875.69;;;13.61;100.00
47530;BME280;33272;51.922;7.730;2023-04-08T12:43:21;145887.16;;;13.65;100.00
47530;BME280;33272;51.922;7.730;2023-04-08T12:45:49;145898.56;;;13.70;100.00
47530;BME280;33272;51.922;7.730;2023-04-08T12:48:17;145898.56;;;13.70;100.00
47530;BME280;33272;51.922;7.730;2023-04-08T12:50:44;145913.81;;;13.76;100.00
47530;BME280;33272;51.922;7.730;2023-04-08T12:53:11;145901.09;;;13.71;100.00
47530;BME280;33272;51.922;7.730;2023-04-08T12:55:38;145875.69;;;13.61;100.00